Time;durP1;ratioP1;P1;durP2;ratioP2;P2;SDS_P1;SDS_P2;PMS_P1;PMS_P2;Temp;Humidity;BMP_temperature;BMP_pressure;BME280_temperature;BME280_humidity;BME280_pressure;Samples;Min_cycle;Max_cycle;Signal;HPM_P1;HPM_P2
2023/12/21 00:02:26;;;;;;;11.40;7.80;;;;;;;;;;2613923;54;20364;-75
2023/12/21 00:07:55;;;;;;;16.97;11.60;;;;;;;;;;2612980;54;20396;-75
2023/12/21 00:13:26;;;;;;;4.10;1.60;;;;;;;;;;2612464;54;20383;-76
2023/12/21 00:18:56;;;;;;;16.70;9.87;;;;;;;;;;2613510;54;20402;-76
2023/12/21 00:24:25;;;;;;;12.07;6.60;;;;;;;;;;2614577;54;20491;-75
2023/12/21 00:29:55;;;;;;;14.10;10.77;;;;;;;;;;2613884;54;20413;-75
2023/12/21 00:35:25;;;;;;;10.97;7.80;;;;;;;;;;2613595;54;20909;-76
2023/12/21 00:40:56;;;;;;;6.30;4.13;;;;;;;;;;2614184;54;20998;-77
2023/12/21 00:46:26;;;;;;;8.60;5.90;;;;;;;;;;2613564;46;20400;-77
2023/12/21 00:51:55;;;;;;;11.87;7.27;;;;;;;;;;2614062;39;20734;-77
2023/12/21 01:03:34;;;;;;;7.93;6.27;;;;;;;;;;2613617;54;20966;-82
2023/12/21 01:09:04;;;;;;;11.80;9.23;;;;;;;;;;2611894;54;20419;-77
2023/12/21 01:14:34;;;;;;;13.90;9.50;;;;;;;;;;2611716;54;20412;-77
2023/12/21 01:20:03;;;;;;;6.30;4.83;;;;;;;;;;2613240;54;20364;-77
2023/12/21 01:25:33;;;;;;;9.57;6.13;;;;;;;;;;2614544;39;20763;-76
2023/12/21 01:31:03;;;;;;;11.03;6.20;;;;;;;;;;2615205;54;20390;-76
2023/12/21 01:36:34;;;;;;;7.60;6.23;;;;;;;;;;2613840;54;20407;-76
2023/12/21 01:42:03;;;;;;;14.17;9.47;;;;;;;;;;2615107;54;20349;-76
2023/12/21 01:47:33;;;;;;;10.33;5.00;;;;;;;;;;2613523;54;20403;-75
2023/12/21 01:53:03;;;;;;;8.40;6.03;;;;;;;;;;2613370;54;20373;-76
2023/12/21 02:02:11;;;;;;;9.20;7.80;;;;;;;;;;2611815;54;20520;-75
2023/12/21 02:07:41;;;;;;;9.30;5.50;;;;;;;;;;2614179;39;20780;-75
2023/12/21 02:13:11;;;;;;;11.13;8.27;;;;;;;;;;2614866;54;20356;-76
2023/12/21 02:18:41;;;;;;;9.47;6.97;;;;;;;;;;2614105;54;21017;-76
2023/12/21 02:24:18;;;;;;;8.70;6.87;;;;;;;;;;2614246;54;20389;-76
2023/12/21 02:29:47;;;;;;;9.73;7.50;;;;;;;;;;2613568;54;20932;-75
2023/12/21 02:35:17;;;;;;;8.63;6.90;;;;;;;;;;2611319;54;20360;-75
2023/12/21 02:40:47;;;;;;;10.17;7.30;;;;;;;;;;2614018;54;20384;-76
2023/12/21 02:46:19;;;;;;;7.07;5.80;;;;;;;;;;2613625;54;20398;-75
2023/12/21 02:51:48;;;;;;;10.67;5.80;;;;;;;;;;2614066;54;20383;-75
2023/12/21 02:57:18;;;;;;;11.23;9.20;;;;;;;;;;2611660;54;20364;-76
2023/12/21 03:02:48;;;;;;;10.47;8.60;;;;;;;;;;2613456;54;20397;-76
2023/12/21 03:08:17;;;;;;;7.27;6.17;;;;;;;;;;2612644;54;20390;-76
2023/12/21 03:13:47;;;;;;;12.80;8.30;;;;;;;;;;2613993;54;20388;-75
2023/12/21 03:19:16;;;;;;;10.33;7.00;;;;;;;;;;2613775;54;20482;-75
2023/12/21 03:24:46;;;;;;;8.83;6.40;;;;;;;;;;2614069;54;20381;-76
2023/12/21 03:30:16;;;;;;;6.10;5.50;;;;;;;;;;2614210;54;20381;-76
2023/12/21 03:35:46;;;;;;;5.57;2.93;;;;;;;;;;2612664;54;20441;-76
2023/12/21 03:41:16;;;;;;;5.60;4.13;;;;;;;;;;2613783;54;20447;-77
2023/12/21 03:46:45;;;;;;;5.97;5.30;;;;;;;;;;2613875;54;20405;-77
2023/12/21 03:52:15;;;;;;;6.60;5.40;;;;;;;;;;2613525;54;20390;-76
2023/12/21 03:57:44;;;;;;;12.83;4.90;;;;;;;;;;2613298;54;20401;-76
2023/12/21 04:03:14;;;;;;;8.57;5.33;;;;;;;;;;2614218;54;20930;-76
2023/12/21 04:08:43;;;;;;;8.77;5.47;;;;;;;;;;2612508;54;20934;-76
2023/12/21 04:14:13;;;;;;;9.53;4.40;;;;;;;;;;2612538;54;20385;-75
2023/12/21 04:19:43;;;;;;;7.23;5.07;;;;;;;;;;2613027;54;20360;-74
2023/12/21 04:25:12;;;;;;;7.43;5.10;;;;;;;;;;2613419;54;20415;-75
2023/12/21 04:30:42;;;;;;;2.80;2.30;;;;;;;;;;2612997;39;20807;-75
2023/12/21 04:36:12;;;;;;;2.30;2.00;;;;;;;;;;2612916;54;20381;-76
2023/12/21 04:41:42;;;;;;;4.87;4.37;;;;;;;;;;2612742;54;20368;-76
2023/12/21 04:47:15;;;;;;;8.70;5.53;;;;;;;;;;2613131;39;20666;-76
2023/12/21 04:52:45;;;;;;;3.93;3.60;;;;;;;;;;2611685;54;20409;-76
2023/12/21 04:55:30;;;;;;;6.50;3.83;;;;;;;;;;2612970;54;20534;-75
2023/12/21 05:04:03;;;;;;;4.10;2.70;;;;;;;;;;2611856;54;20403;-75
2023/12/21 05:09:33;;;;;;;2.47;1.73;;;;;;;;;;2614013;39;20847;-76
2023/12/21 05:15:03;;;;;;;3.80;2.63;;;;;;;;;;2613650;54;20382;-76
2023/12/21 05:20:32;;;;;;;4.90;3.10;;;;;;;;;;2612160;39;20758;-77
2023/12/21 05:26:02;;;;;;;4.47;2.60;;;;;;;;;;2614960;54;20614;-76
2023/12/21 05:31:33;;;;;;;3.07;2.70;;;;;;;;;;2613688;54;20363;-77
2023/12/21 05:37:03;;;;;;;2.50;1.90;;;;;;;;;;2614411;39;21659;-75
2023/12/21 05:42:33;;;;;;;2.80;2.03;;;;;;;;;;2614182;54;20407;-76
2023/12/21 05:48:02;;;;;;;3.60;2.80;;;;;;;;;;2614044;54;20907;-76
2023/12/21 05:53:33;;;;;;;5.00;2.60;;;;;;;;;;2609767;54;20964;-77
2023/12/21 06:02:43;;;;;;;8.30;6.30;;;;;;;;;;2613791;54;20465;-76
2023/12/21 06:08:12;;;;;;;5.40;3.47;;;;;;;;;;2614654;54;20463;-75
2023/12/21 06:13:42;;;;;;;7.57;5.00;;;;;;;;;;2612685;54;20401;-74
2023/12/21 06:19:12;;;;;;;7.10;4.90;;;;;;;;;;2613704;54;20900;-75
2023/12/21 06:24:41;;;;;;;7.00;4.40;;;;;;;;;;2614201;54;20407;-76
2023/12/21 06:30:11;;;;;;;16.13;4.33;;;;;;;;;;2614947;46;20372;-76
2023/12/21 06:35:41;;;;;;;7.87;5.60;;;;;;;;;;2614738;46;20411;-76
2023/12/21 06:41:13;;;;;;;7.57;5.27;;;;;;;;;;2616432;39;21657;-75
2023/12/21 06:46:43;;;;;;;17.60;7.20;;;;;;;;;;2614635;54;20929;-76
2023/12/21 06:52:12;;;;;;;8.70;6.03;;;;;;;;;;2613686;54;20377;-76
2023/12/21 06:57:42;;;;;;;8.93;5.37;;;;;;;;;;2613370;54;20913;-76
2023/12/21 07:03:11;;;;;;;6.03;4.17;;;;;;;;;;2615224;54;20497;-76
2023/12/21 07:08:42;;;;;;;10.57;7.50;;;;;;;;;;2613368;54;20423;-78
2023/12/21 07:14:11;;;;;;;12.00;7.67;;;;;;;;;;2614218;54;20440;-78
2023/12/21 07:19:41;;;;;;;15.37;7.13;;;;;;;;;;2614064;39;20448;-77
2023/12/21 07:25:11;;;;;;;6.77;6.03;;;;;;;;;;2615316;54;20378;-77
2023/12/21 07:30:40;;;;;;;6.77;5.20;;;;;;;;;;2614396;54;20396;-77
2023/12/21 07:36:10;;;;;;;13.00;7.43;;;;;;;;;;2615121;39;20487;-76
2023/12/21 07:39:04;;;;;;;16.23;7.30;;;;;;;;;;2614410;54;20566;-76
2023/12/21 07:41:31;;;;;;;7.47;4.73;;;;;;;;;;2610763;47;20451;-77
2023/12/21 07:47:00;;;;;;;8.10;4.10;;;;;;;;;;2614626;39;20806;-77
2023/12/21 07:52:30;;;;;;;13.60;4.83;;;;;;;;;;2615962;39;21574;-76
2023/12/21 07:58:00;;;;;;;10.63;3.97;;;;;;;;;;2613945;54;20391;-76
2023/12/21 08:07:08;;;;;;;4.60;3.50;;;;;;;;;;2612776;39;20966;-76
2023/12/21 08:12:37;;;;;;;7.97;4.57;;;;;;;;;;2614249;54;20405;-76
2023/12/21 08:18:11;;;;;;;7.20;4.47;;;;;;;;;;2612439;54;20362;-76
2023/12/21 08:23:40;;;;;;;10.07;5.20;;;;;;;;;;2612127;46;20386;-77
2023/12/21 08:29:10;;;;;;;9.70;8.33;;;;;;;;;;2613156;54;20510;-76
2023/12/21 08:34:39;;;;;;;5.83;4.67;;;;;;;;;;2614341;54;20847;-77
2023/12/21 08:40:10;;;;;;;5.93;4.33;;;;;;;;;;2613501;54;20380;-78
2023/12/21 08:45:40;;;;;;;4.83;4.20;;;;;;;;;;2613124;54;20380;-76
2023/12/21 08:51:10;;;;;;;7.50;4.23;;;;;;;;;;2613514;54;20355;-76
2023/12/21 08:56:44;;;;;;;6.90;4.37;;;;;;;;;;2614318;54;20372;-75
2023/12/21 09:02:14;;;;;;;3.87;3.47;;;;;;;;;;2614919;54;20934;-76
2023/12/21 09:07:44;;;;;;;11.60;5.17;;;;;;;;;;2614005;54;20353;-75
2023/12/21 09:13:13;;;;;;;6.60;3.37;;;;;;;;;;2614771;39;20752;-76
2023/12/21 09:15:59;;;;;;;3.40;2.93;;;;;;;;;;2613784;54;20440;-76
2023/12/21 09:18:25;;;;;;;5.37;3.37;;;;;;;;;;2612970;54;20637;-76
2023/12/21 09:23:57;;;;;;;4.90;2.50;;;;;;;;;;2614435;54;20558;-76
2023/12/21 09:29:26;;;;;;;4.20;2.60;;;;;;;;;;2614293;54;20405;-76
2023/12/21 09:34:56;;;;;;;5.50;2.70;;;;;;;;;;2612360;54;20413;-75
2023/12/21 09:40:26;;;;;;;3.67;2.10;;;;;;;;;;2612391;54;20411;-77
2023/12/21 09:45:59;;;;;;;3.43;2.37;;;;;;;;;;2614558;54;20384;-76
2023/12/21 09:51:29;;;;;;;3.30;2.87;;;;;;;;;;2614141;54;20374;-77
2023/12/21 09:56:59;;;;;;;3.77;1.47;;;;;;;;;;2614252;54;20885;-76
2023/12/21 10:02:31;;;;;;;1.93;1.30;;;;;;;;;;2615967;54;20377;-76
2023/12/21 10:08:02;;;;;;;1.87;1.20;;;;;;;;;;2614056;54;20380;-77
2023/12/21 10:13:31;;;;;;;1.30;0.90;;;;;;;;;;2615085;54;20369;-77
2023/12/21 10:19:01;;;;;;;2.30;1.03;;;;;;;;;;2614791;54;20403;-76
2023/12/21 10:24:32;;;;;;;2.23;1.63;;;;;;;;;;2613289;54;21132;-76
2023/12/21 10:30:03;;;;;;;1.80;1.20;;;;;;;;;;2614926;54;20479;-76
2023/12/21 10:35:32;;;;;;;2.53;1.10;;;;;;;;;;2613394;54;20366;-77
2023/12/21 10:41:05;;;;;;;3.20;1.90;;;;;;;;;;2614501;54;20360;-76
2023/12/21 10:46:38;;;;;;;11.20;1.07;;;;;;;;;;2611225;54;20404;-77
2023/12/21 10:52:08;;;;;;;1.37;1.13;;;;;;;;;;2612476;54;20394;-76
2023/12/21 10:57:41;;;;;;;1.40;0.90;;;;;;;;;;2612234;54;20383;-76
2023/12/21 11:09:20;;;;;;;2.63;2.43;;;;;;;;;;2614813;54;20389;-76
2023/12/21 11:14:50;;;;;;;4.60;3.03;;;;;;;;;;2614436;54;20495;-77
2023/12/21 11:20:22;;;;;;;5.43;2.50;;;;;;;;;;2614068;54;20923;-77
2023/12/21 11:25:58;;;;;;;4.70;4.27;;;;;;;;;;2615641;39;20867;-77
2023/12/21 11:37:24;;;;;;;5.10;3.03;;;;;;;;;;2615387;54;20388;-78
2023/12/21 11:42:57;;;;;;;5.47;4.63;;;;;;;;;;2615045;54;20392;-76
2023/12/21 11:48:27;;;;;;;10.93;3.50;;;;;;;;;;2615616;54;20393;-76
2023/12/21 11:54:03;;;;;;;6.80;3.80;;;;;;;;;;2614586;54;20434;-75
2023/12/21 11:59:32;;;;;;;7.20;3.47;;;;;;;;;;2615121;54;20389;-75
2023/12/21 12:05:06;;;;;;;9.10;2.70;;;;;;;;;;2614027;54;20515;-76
2023/12/21 12:10:36;;;;;;;4.10;2.33;;;;;;;;;;2613633;54;20901;-75
2023/12/21 12:16:07;;;;;;;6.03;2.83;;;;;;;;;;2615093;54;20426;-76
2023/12/21 12:21:36;;;;;;;3.10;1.57;;;;;;;;;;2614086;54;20379;-75
2023/12/21 12:27:06;;;;;;;2.47;0.93;;;;;;;;;;2615165;54;20417;-75
2023/12/21 12:32:35;;;;;;;1.73;1.13;;;;;;;;;;2613555;54;20453;-75
2023/12/21 12:38:05;;;;;;;3.27;1.83;;;;;;;;;;2614295;54;20397;-75
2023/12/21 12:43:35;;;;;;;2.57;1.67;;;;;;;;;;2612456;54;20475;-75
2023/12/21 12:49:05;;;;;;;3.43;1.10;;;;;;;;;;2613735;54;21004;-75
2023/12/21 12:54:35;;;;;;;2.70;1.43;;;;;;;;;;2612410;54;20441;-75
2023/12/21 13:00:05;;;;;;;1.23;0.97;;;;;;;;;;2612085;54;20379;-74
2023/12/21 13:02:38;;;;;;;2.67;1.30;;;;;;;;;;2613710;47;20442;-75
2023/12/21 13:05:07;;;;;;;4.40;0.90;;;;;;;;;;2611358;39;21083;-75
2023/12/21 13:10:36;;;;;;;5.23;1.60;;;;;;;;;;2612599;54;20366;-75
2023/12/21 13:16:06;;;;;;;7.63;1.40;;;;;;;;;;2614373;54;20409;-75
2023/12/21 13:21:36;;;;;;;3.83;1.50;;;;;;;;;;2613255;54;20446;-75
2023/12/21 13:27:06;;;;;;;3.33;1.57;;;;;;;;;;2615227;54;20390;-75
2023/12/21 13:32:35;;;;;;;3.07;0.90;;;;;;;;;;2613181;54;20361;-75
2023/12/21 13:38:05;;;;;;;1.77;1.13;;;;;;;;;;2615953;54;20405;-75
2023/12/21 13:43:34;;;;;;;1.50;0.87;;;;;;;;;;2614470;54;20512;-76
2023/12/21 13:49:04;;;;;;;2.60;0.87;;;;;;;;;;2614642;54;20391;-76
2023/12/21 13:54:34;;;;;;;3.13;1.60;;;;;;;;;;2614104;54;20439;-76
2023/12/21 14:00:04;;;;;;;1.77;1.13;;;;;;;;;;2614936;54;20356;-76
2023/12/21 14:02:41;;;;;;;2.30;1.17;;;;;;;;;;2615415;54;20418;-75
2023/12/21 14:05:07;;;;;;;2.03;1.07;;;;;;;;;;2614498;54;20431;-74
2023/12/21 14:10:37;;;;;;;2.27;0.90;;;;;;;;;;2614371;39;20642;-75
2023/12/21 14:16:06;;;;;;;2.90;0.90;;;;;;;;;;2614542;54;20347;-75
2023/12/21 14:21:36;;;;;;;8.83;1.50;;;;;;;;;;2613253;54;20384;-75
2023/12/21 14:27:06;;;;;;;2.93;0.90;;;;;;;;;;2613118;54;20368;-75
2023/12/21 14:32:35;;;;;;;4.23;1.90;;;;;;;;;;2612153;54;20488;-75
2023/12/21 14:38:07;;;;;;;3.53;1.87;;;;;;;;;;2610655;54;20418;-75
2023/12/21 14:43:37;;;;;;;5.07;2.30;;;;;;;;;;2613795;54;20366;-75
2023/12/21 14:49:08;;;;;;;17.87;2.07;;;;;;;;;;2613344;39;20913;-75
2023/12/21 14:54:38;;;;;;;4.17;1.50;;;;;;;;;;2613122;54;20353;-75
2023/12/21 15:00:09;;;;;;;4.90;1.40;;;;;;;;;;2613032;54;20383;-75
2023/12/21 15:02:41;;;;;;;3.67;1.83;;;;;;;;;;2613626;54;20508;-77
2023/12/21 15:05:08;;;;;;;3.93;2.17;;;;;;;;;;2613727;31;20911;-76
2023/12/21 15:10:39;;;;;;;5.97;1.83;;;;;;;;;;2613731;54;20454;-74
2023/12/21 15:16:09;;;;;;;5.30;2.07;;;;;;;;;;2613881;54;20454;-74
2023/12/21 15:21:39;;;;;;;2.90;1.80;;;;;;;;;;2614937;54;20351;-74
2023/12/21 15:27:08;;;;;;;16.90;3.90;;;;;;;;;;2615659;39;20724;-75
2023/12/21 15:32:38;;;;;;;5.63;1.80;;;;;;;;;;2616261;39;20852;-76
2023/12/21 15:38:08;;;;;;;4.43;1.70;;;;;;;;;;2615065;54;20389;-76
2023/12/21 15:43:37;;;;;;;6.70;2.30;;;;;;;;;;2614425;54;20405;-75
2023/12/21 15:49:07;;;;;;;11.00;2.87;;;;;;;;;;2612039;54;20394;-76
2023/12/21 15:54:36;;;;;;;6.40;2.13;;;;;;;;;;2613669;54;20387;-76
2023/12/21 16:00:10;;;;;;;7.47;2.80;;;;;;;;;;2612120;54;20367;-77
2023/12/21 16:02:38;;;;;;;8.27;2.60;;;;;;;;;;2612977;54;20426;-76
2023/12/21 16:05:05;;;;;;;7.00;2.23;;;;;;;;;;2613857;54;20402;-77
2023/12/21 16:10:34;;;;;;;6.67;2.73;;;;;;;;;;2614883;54;20357;-76
2023/12/21 16:16:04;;;;;;;4.30;1.90;;;;;;;;;;2613588;54;20387;-76
2023/12/21 16:21:34;;;;;;;13.27;3.17;;;;;;;;;;2612649;54;20510;-77
2023/12/21 16:27:06;;;;;;;7.17;2.57;;;;;;;;;;2614744;54;20381;-76
2023/12/21 16:32:35;;;;;;;9.97;2.97;;;;;;;;;;2612048;39;20770;-77
2023/12/21 16:38:05;;;;;;;6.00;2.30;;;;;;;;;;2614484;39;20734;-76
2023/12/21 16:43:37;;;;;;;5.10;1.73;;;;;;;;;;2613482;54;20393;-77
2023/12/21 16:49:07;;;;;;;15.10;2.60;;;;;;;;;;2612718;54;20396;-77
2023/12/21 16:54:37;;;;;;;4.47;2.00;;;;;;;;;;2611561;54;20361;-77
2023/12/21 17:00:07;;;;;;;12.03;2.77;;;;;;;;;;2611872;54;20380;-77
2023/12/21 17:02:41;;;;;;;8.90;3.23;;;;;;;;;;2612556;47;20528;-78
2023/12/21 17:05:07;;;;;;;12.90;3.40;;;;;;;;;;2612912;47;20403;-77
2023/12/21 17:10:37;;;;;;;9.80;2.47;;;;;;;;;;2613564;54;20429;-77
2023/12/21 17:16:07;;;;;;;4.20;1.87;;;;;;;;;;2614438;54;20396;-76
2023/12/21 17:21:37;;;;;;;7.17;2.63;;;;;;;;;;2614229;54;20379;-77
2023/12/21 17:27:06;;;;;;;9.60;1.90;;;;;;;;;;2614425;39;20917;-76
2023/12/21 17:32:36;;;;;;;6.70;2.83;;;;;;;;;;2614252;54;20368;-76
2023/12/21 17:38:05;;;;;;;10.43;2.80;;;;;;;;;;2613924;54;20387;-76
2023/12/21 17:43:35;;;;;;;13.43;2.47;;;;;;;;;;2611951;54;20391;-76
2023/12/21 17:49:05;;;;;;;8.30;3.47;;;;;;;;;;2612797;54;21018;-77
2023/12/21 17:54:34;;;;;;;12.43;3.10;;;;;;;;;;2613756;54;20974;-75
2023/12/21 18:00:04;;;;;;;10.43;4.60;;;;;;;;;;2613567;54;21083;-76
2023/12/21 18:02:42;;;;;;;12.50;3.10;;;;;;;;;;2613690;54;20475;-75
2023/12/21 18:05:08;;;;;;;6.20;3.40;;;;;;;;;;2613208;54;20400;-76
2023/12/21 18:10:38;;;;;;;6.47;2.47;;;;;;;;;;2613530;54;20372;-77
2023/12/21 18:16:09;;;;;;;6.50;2.37;;;;;;;;;;2614773;54;20392;-77
2023/12/21 18:21:38;;;;;;;11.60;2.53;;;;;;;;;;2614742;54;20395;-78
2023/12/21 18:27:08;;;;;;;29.13;2.63;;;;;;;;;;2613774;54;20351;-78
2023/12/21 18:32:39;;;;;;;5.57;1.83;;;;;;;;;;2615143;54;20477;-76
2023/12/21 18:38:08;;;;;;;2.80;1.67;;;;;;;;;;2614858;54;20391;-77
2023/12/21 18:43:38;;;;;;;3.63;1.93;;;;;;;;;;2612945;54;20408;-77
2023/12/21 18:49:07;;;;;;;12.20;2.33;;;;;;;;;;2613232;54;20358;-77
2023/12/21 18:54:37;;;;;;;7.97;2.53;;;;;;;;;;2613737;54;20417;-76
2023/12/21 19:00:07;;;;;;;13.40;3.30;;;;;;;;;;2613012;54;20496;-77
2023/12/21 19:02:39;;;;;;;13.27;2.83;;;;;;;;;;2613138;54;20423;-77
2023/12/21 19:05:06;;;;;;;14.10;3.93;;;;;;;;;;2612525;54;20404;-76
2023/12/21 19:10:35;;;;;;;3.10;1.63;;;;;;;;;;2610968;54;20539;-76
2023/12/21 19:16:05;;;;;;;10.27;2.43;;;;;;;;;;2614058;54;20430;-76
2023/12/21 19:21:35;;;;;;;5.77;2.83;;;;;;;;;;2612949;54;20422;-76
2023/12/21 19:27:04;;;;;;;3.73;1.43;;;;;;;;;;2614056;39;20445;-75
2023/12/21 19:32:35;;;;;;;10.00;3.10;;;;;;;;;;2612298;39;20772;-77
2023/12/21 19:38:05;;;;;;;9.40;5.63;;;;;;;;;;2611650;54;20382;-76
2023/12/21 19:43:34;;;;;;;6.00;3.13;;;;;;;;;;2613111;54;20371;-76
2023/12/21 19:49:04;;;;;;;8.20;3.77;;;;;;;;;;2610871;54;20390;-77
2023/12/21 19:54:34;;;;;;;5.10;1.87;;;;;;;;;;2611025;54;20411;-78
2023/12/21 20:00:04;;;;;;;9.77;2.97;;;;;;;;;;2612249;54;20400;-78
2023/12/21 20:05:43;;;;;;;5.27;2.20;;;;;;;;;;2610172;54;20415;-78
2023/12/21 20:11:12;;;;;;;6.93;2.50;;;;;;;;;;2611358;54;20420;-79
2023/12/21 20:16:42;;;;;;;9.50;2.83;;;;;;;;;;2613429;54;20360;-78
2023/12/21 20:22:11;;;;;;;21.57;3.60;;;;;;;;;;2613410;54;20434;-78
2023/12/21 20:27:46;;;;;;;10.63;3.80;;;;;;;;;;2612758;54;20942;-77
2023/12/21 20:33:15;;;;;;;8.07;2.97;;;;;;;;;;2612723;54;20387;-79
2023/12/21 20:38:45;;;;;;;16.93;4.77;;;;;;;;;;2612969;54;20421;-77
2023/12/21 20:44:14;;;;;;;16.63;3.37;;;;;;;;;;2611848;54;20430;-78
2023/12/21 20:49:44;;;;;;;10.10;2.67;;;;;;;;;;2611374;54;20387;-78
2023/12/21 20:55:14;;;;;;;13.07;3.23;;;;;;;;;;2611287;54;20384;-78
2023/12/21 21:00:44;;;;;;;16.23;4.40;;;;;;;;;;2610854;54;20409;-77
2023/12/21 21:09:55;;;;;;;10.53;3.73;;;;;;;;;;2612713;39;20802;-76
2023/12/21 21:15:26;;;;;;;5.33;2.40;;;;;;;;;;2614892;31;20886;-76
2023/12/21 21:20:56;;;;;;;6.03;3.20;;;;;;;;;;2611729;54;20375;-79
2023/12/21 21:26:26;;;;;;;6.33;3.70;;;;;;;;;;2612842;54;20387;-78
2023/12/21 21:31:56;;;;;;;7.60;3.00;;;;;;;;;;2614563;54;20367;-79
2023/12/21 21:37:26;;;;;;;5.27;2.50;;;;;;;;;;2613155;54;20365;-81
2023/12/21 21:42:56;;;;;;;11.30;4.47;;;;;;;;;;2613968;54;20388;-77
2023/12/21 21:48:26;;;;;;;12.80;2.50;;;;;;;;;;2612337;46;20384;-76
2023/12/21 21:53:56;;;;;;;11.50;4.20;;;;;;;;;;2615145;54;20439;-75
2023/12/21 21:59:25;;;;;;;19.63;3.90;;;;;;;;;;2612314;54;20499;-76
2023/12/21 22:04:55;;;;;;;11.93;4.00;;;;;;;;;;2614567;54;20413;-75
2023/12/21 22:10:24;;;;;;;7.60;3.90;;;;;;;;;;2613263;54;20478;-76
2023/12/21 22:15:54;;;;;;;11.90;4.77;;;;;;;;;;2613557;54;20462;-76
2023/12/21 22:21:24;;;;;;;11.23;4.80;;;;;;;;;;2615449;54;20419;-76
2023/12/21 22:26:54;;;;;;;5.70;2.17;;;;;;;;;;2614721;54;20435;-76
2023/12/21 22:32:23;;;;;;;7.37;2.73;;;;;;;;;;2614667;54;20382;-76
2023/12/21 22:37:53;;;;;;;9.50;2.77;;;;;;;;;;2615919;39;20750;-76
2023/12/21 22:43:23;;;;;;;9.03;2.40;;;;;;;;;;2614990;39;20813;-76
2023/12/21 22:48:52;;;;;;;3.70;1.63;;;;;;;;;;2614792;54;20350;-76
2023/12/21 22:54:22;;;;;;;11.57;2.93;;;;;;;;;;2613997;54;20502;-76
2023/12/21 22:59:51;;;;;;;5.90;3.10;;;;;;;;;;2612545;54;20410;-75
2023/12/21 23:05:21;;;;;;;11.00;2.97;;;;;;;;;;2614060;54;20452;-75
2023/12/21 23:14:35;;;;;;;3.40;2.60;;;;;;;;;;2613898;54;20394;-75
2023/12/21 23:20:05;;;;;;;4.77;1.70;;;;;;;;;;2613665;54;20627;-76
2023/12/21 23:25:35;;;;;;;5.60;2.03;;;;;;;;;;2613523;54;20369;-76
2023/12/21 23:31:05;;;;;;;3.13;1.87;;;;;;;;;;2612403;54;20402;-76
2023/12/21 23:36:37;;;;;;;5.33;1.97;;;;;;;;;;2614932;54;20390;-77
2023/12/21 23:42:07;;;;;;;4.30;1.67;;;;;;;;;;2614098;54;20940;-76
2023/12/21 23:47:55;;;;;;;3.03;1.53;;;6.10;1.00;;;;;;2613103;54;21588;-77
2023/12/21 23:53:43;;;;;;;8.57;3.20;;;6.10;1.00;;;;;;2614276;54;20131;-76
2023/12/21 23:59:12;;;;;;;5.17;2.30;;;;;;;;;;2613303;54;20166;-78
